NWS Home NWS Lubbock West Texas Mesonet Day over Day changes as of 1031 AM, Mon Jun 26, 2017

Latest   N   C   S   Daily Sum   3hrΔ   24hrΔ   Soil Data 
Site Map   24hr Precip   72hr Precip   Google Plot


Station Time of Last Temp Today Temp Yesterday Delta-T Dewpoint Today Dewpoint Yesterday Delta-Td Delta-Pressure (mB)
Reese Center  10:25 AM 73 72.8 0.2 59.9 61.1 -1.2 -2.3
Abernathy  10:25 AM 68.8 72.7 -3.8 59.8 62.7 -2.9 -2.5
Plainview  10:25 AM 70.5 69.3 1.2 60.8 63.2 -2.4 -2.6
Tahoka  10:25 AM 69.4 74.9 -5.5 62.9 61.1 1.7 -2.5
Slaton  10:25 AM 69.2 73 -3.7 66.1 61.4 4.7 -2.1
Levelland  10:25 AM 70.8 73.4 -2.6 60.4 61.9 -1.5 -2
Roaring Springs  10:25 AM 70.4 73.1 -2.6 65.3 64.7 0.6 -2.6
Floydada  10:25 AM 67.7 70.1 -2.4 61.2 62 -0.9 -2.8
Ralls  10:25 AM 68.9 72.5 -3.6 60.3 61.2 -0.9 -2.7
Brownfield  10:25 AM 72.2 75.7 -3.5 58.2 62 -3.8 -1.6
Muleshoe  10:25 AM 71.2 70.8 0.4 59.7 63.7 -4 -2
Morton  10:25 AM 69.2 67.7 1.6 59.8 64.6 -4.8 -2
O'Donnell  10:25 AM 69.7 75.3 -5.6 60.1 59.3 0.8 -2.6
Seagraves  10:25 AM 67.6 72.4 -4.9 61.7 64 -2.3 -1.4
Amherst  10:25 AM 68.7 71.8 -3.1 59.3 62.6 -3.3 -2.3
Plains  10:25 AM 67.9 70 -2 59.8 62.4 -2.6 -1.1
Lamesa  10:25 AM 68.8 75.2 -6.5 61.5 62.9 -1.3 -2.2
Hart  10:25 AM 69 67.7 1.3 58.1 62.4 -4.3 -2.8
Friona  10:25 AM 71.7 62.9 8.8 57.5 61.4 -4 -2.3
Dimmitt  10:25 AM 69.1 64.1 5 58.5 61.6 -3 -2.6
Tulia  10:25 AM 69.7 63.8 5.9 60.2 60.6 -0.4 -3.2
Silverton  10:25 AM 71.4 68.6 2.8 56.4 62.6 -6.2 -2.5
Post  10:25 AM 67.1 75.8 -8.6 64 61.1 2.9 -2.5
Seminole  10:25 AM 68.9 72.4 -3.5 61.3 63.4 -2 -1.7
Gail  10:25 AM 67.5 76.6 -9.1 65.7 61.1 4.6 -2.8
White River Lake  10:20 AM 69.5 74.1 -4.6 62.6 61.1 1.5 -2.6
Graham  10:25 AM 65.7 75 -9.3 64.5 61.8 2.6 -2.8
Sundown  10:25 AM 70.7 69.6 1 59.4 62.5 -3.1 -2.2
Anton  10:25 AM 71.9 73.3 -1.4 60.7 63.4 -2.6 -2.5
Fluvanna  10:25 AM 69.3 76.6 -7.3 64.2 61.5 2.7 -2.9
Spur  10:25 AM 72.1 74.6 -2.5 65.9 62.5 3.4 -2.4
Northwest Lubbock  10:25 AM 76 73.8 2.2 59.2 60.9 -1.7 -2.4
Guthrie  10:25 AM 73.4 78.3 -4.9 63.8 62.1 1.6 -2.3
Clarendon  10:25 AM 73.5 66.8 6.6 57.2 63.2 -5.9 -2.4
Paducah  10:25 AM 73.9 75.9 -2 62.3 61.6 0.6 -2.6
Snyder  10:25 AM 68.2 77.8 -9.6 67.1 65 2.1 -2.4
Memphis  10:25 AM 76.6 72.4 4.2 61 60.8 0.1 -3
Jayton  10:25 AM 74.1 76.4 -2.3 65.1 63.3 1.8 -2.5
Pampa  10:25 AM 73.5 63 10.5 56.6 62 -5.3 -2.4
Aspermont  10:25 AM 75.9 78.2 -2.2 67.9 64.7 3.2 -2.4
Hereford  10:25 AM 71.4 64.1 7.3 55.3 60.8 -5.5 -2.1
Goodlett  10:25 AM 76 76 -0 61.4 59 2.4 -2.9
McLean  10:25 AM 74.3 62.3 12 59.1 60.8 -1.8 -3.4
Denver City  10:25 AM 64.3 70.7 -6.4 58 61.4 -3.4 -1
Lake Alan Henry  10:25 AM 68.6 78 -9.4 65.8 62.5 3.3 -2.6
Wolfforth  10:25 AM 73.5 74.6 -1.1 59.1 60.6 -1.5 -2.2
Andrews  10:25 AM 70.3 78.3 -8 61.5 62.4 -0.9 -1.5
Turkey  10:25 AM 73.5 71.8 1.7 61.1 65.4 -4.3 -2.4
Childress  10:25 AM 75.1 75.2 -0.1 61 60.6 0.4 -2.7
Tatum  10:25 AM 68.6 69.2 -0.7 57.7 61.5 -3.9 -0.9
Northfield  10:25 AM 74.9 74.5 0.4 62.3 61.5 0.8 -2.4
Dora  10:25 AM 68.3 70.8 -2.5 60.2 62.6 -2.3 -1
Northwest San Angelo  10:25 AM 76.5 78.2 -1.8 66.3 63.2 3 -2.7
Saint Lawrence  10:25 AM 69.2 77.3 -8.2 64.2 61.7 2.5 -2.4
Haskell  10:25 AM 75.8 76.3 -0.6 67.5 64.8 2.8 -2.5
Wall  10:25 AM 77.4 73 4.4 69.6 66 3.6 -2.8
Seymour  10:25 AM 75 76 -1.1 67.6 61.7 5.9 -2.4
Knox City  10:25 AM 74.8 78.7 -3.9 67.8 63.6 4.2 -2.4
Guadalupe Mtns Park  10:25 AM 61.8 65 -3.2 59.8 59.6 0.2 -0.5
Caprock Canyons   10:25 AM 71.1 70.5 0.6 60.1 64.8 -4.7 -2.4
Odell  03:05 PM 76.4 94.3 -17.8 65.8 63.8 2.1 10.2
Coyanosa  10:25 AM 71.6 80.1 -8.6 64.7 62.8 1.9 -0.3
Big Lake  10:25 AM 70.1 78.9 -8.8 64.2 61.1 3.1 -2.3
Junction  10:25 AM 79.3 77.5 1.8 67.8 67.7 0 -1.4
Hobbs  10:25 AM 66.4 70.2 -3.8 61 63 -1.9 -1.1
Canadian  04:20 PM 85.1 85.6 -0.4 53.6 49.6 4.1 5.1
Palo Duro Canyon State Park Rim  10:25 AM 74.6 61.3 13.4 55.5 59.2 -3.7 -1.5
Bootleg  10:25 AM 71 62.5 8.5 56.4 61.3 -5 -1.7
Sterling City  10:25 AM 76.6 78 -1.4 60.8 64.7 -4 -2.4
Mertzon  10:25 AM 73.6 75.7 -2.1 65 65.4 -0.3 -2.8
Persimmon Gap  10:25 AM 76.6 74.1 2.4 64.3 64.9 -0.6 -1.3
Weinert  10:25 AM 74.9 76.9 -2 69.7 66.6 3.1 -2.5
Claude 12 Southwest  10:25 AM 71.4 63.3 8.1 57.6 62.5 -4.9 -2.2
Amarillo 7 South Southeast  10:25 AM 72.2 61.4 10.7 56.7 59 -2.4 -1
Umbarger  10:25 AM 71.9 62.4 9.5 58.3 58.4 -0.1 -0.5
Lomax  10:25 AM 68.1 77.3 -9.2 64 65 -1 -1.9
Amarillo 9 North Northeast  10:25 AM 73.2 66.4 6.8 58.8 62.5 -3.8 -1.6
Aiken 3 West Southwest  10:25 AM 69.4 69 0.4 61.3 63.6 -2.2 -2.5
Sweetwater  10:25 AM 75.2 74.6 0.6 66 65.2 0.7 -2.4
Amarillo 15 North Northwest  10:25 AM 73.4 67.9 5.5 58.7 64.1 -5.4 -1.8
Menard  10:25 AM 79.5 76 3.5 68 66.1 2 -1.9
Tarzan  10:25 AM 70 76.2 -6.3 64.5 64.3 0.2 -2.5
Goodnight  10:25 AM 72.1 65 7.1 57.8 64.7 -6.8 -2.3
Boys Ranch   10:25 AM 73 71.3 1.6 58.8 61.9 -3.1 -1.7
Fort McKavett  10:25 AM 79 76.1 3 67.9 66 1.9 -1.8
Fort Chadbourne  10:25 AM 77 74.2 2.8 68.9 66.4 2.5 -2.7
Palo Duro Canyon State Park Floor  10:25 AM 76.4 65.1 11.2 60 62.8 -2.9 -2
Fort Lancaster  10:25 AM 76.8 80.4 -3.7 63.8 63.3 0.5 -1.2
Dell City 1N  10:25 AM 78.1 80.3 -2.1 60.6 63.3 -2.7 -0
Clyde  10:25 AM 76.1 75.5 0.5 69.5 66.9 2.6 -2.2
Snyder SSW  09:00 AM 68 75.8 -7.7 66.7 65.1 1.6 -1.5
Panhandle  10:25 AM 71.7 66.3 5.4 57.8 62.9 -5.1 -1.7
Vigo Park  10:25 AM 72.4 64.8 7.5 58.4 62.6 -4.2 -2.5
Welch  10:25 AM 71.9 74.8 -3 62 62.9 -0.9 -2.2
Throckmorton  10:25 AM 74.2 76.2 -2 69.6 66.4 3.2 -2.2
Sierra Blanca  10:25 AM 70.3 78.9 -8.5 60 62 -2 0.4
Fort Lewis CO  10:25 AM 68.8 67.7 1.1 45.4 43.6 1.8 -0.3
New Home  10:25 AM 73.3 75 -1.7 62.2 62.5 -0.3 -2.4
McCamey  10:25 AM 68.6 80.7 -12.2 63.7 64.1 -0.4 -0.9
Stamford  10:25 AM 76.7 76.6 0.1 69.7 67.7 2 -2.3
Crowell  10:25 AM 75.3 77.8 -2.5 68.7 64.3 4.4 -2.5
Stinnett  10:25 AM 74 65.9 8 55.9 63.6 -7.7 -2.3
Olton  10:25 AM 70.1 69.6 0.5 58 61.2 -3.2 -2.5

West Texas Mesonet Home   Site Map/Menu  NWS Lubbock Soil Data  Daily Summary Page  24hr Precip  72hr Precip  Google Plot